Time,TemperatureF,DewpointF,PressureIn,WindDirection,WindDirectionDegrees,WindSpeedMPH,WindSpeedGustMPH,Humidity,HourlyPrecipIn,Conditions,Clouds,dailyrainin,SoftwareType,DateUTC
2013-03-14 00:09:00,55.8,-99.9,30.27,SSW,202,2.9,4.0,8,0.00,,CLR,0.00,VWS V14.01,2013-03-14 07:09:00,
2013-03-14 00:19:00,56.1,-99.9,30.27,SW,225,4.0,4.0,8,0.00,,CLR,0.00,VWS V14.01,2013-03-14 07:19:00,
2013-03-14 00:29:00,54.7,-99.9,30.27,SSW,202,2.9,4.3,9,0.00,,CLR,0.00,VWS V14.01,2013-03-14 07:29:00,
2013-03-14 00:49:00,53.6,-99.9,30.27,SSW,202,3.1,4.9,10,0.00,,CLR,0.00,VWS V14.01,2013-03-14 07:49:00,
2013-03-14 00:59:00,53.4,-99.9,30.27,SSW,202,3.1,3.4,15,0.00,,CLR,0.00,VWS V14.01,2013-03-14 07:59:00,
2013-03-14 01:09:00,53.1,-99.9,30.27,SSW,202,3.1,4.3,18,0.00,,CLR,0.00,VWS V14.01,2013-03-14 08:09:00,
2013-03-14 01:19:00,53.2,-99.9,30.27,SSW,202,2.9,3.8,18,0.00,,CLR,0.00,VWS V14.01,2013-03-14 08:19:00,
2013-03-14 01:29:00,53.4,-99.9,30.27,SSW,202,2.5,4.3,15,0.00,,CLR,0.00,VWS V14.01,2013-03-14 08:29:00,
2013-03-14 01:39:00,52.3,-99.9,30.27,South,180,3.4,3.6,18,0.00,,CLR,0.00,VWS V14.01,2013-03-14 08:39:00,
2013-03-14 01:49:00,51.6,-99.9,30.27,SSW,202,2.5,3.6,23,0.00,,CLR,0.00,VWS V14.01,2013-03-14 08:49:00,
2013-03-14 01:59:00,52.0,-99.9,30.24,SSW,202,2.0,3.4,18,0.00,,CLR,0.00,VWS V14.01,2013-03-14 08:59:00,
2013-03-14 02:09:00,52.9,-99.9,30.24,SSW,202,2.5,3.8,13,0.00,,CLR,0.00,VWS V14.01,2013-03-14 09:09:00,
2013-03-14 02:19:00,52.2,-99.9,30.24,SSW,202,2.7,4.0,20,0.00,,CLR,0.00,VWS V14.01,2013-03-14 09:19:00,
2013-03-14 02:29:00,51.6,-99.9,30.24,SW,225,4.0,4.3,23,0.00,,CLR,0.00,VWS V14.01,2013-03-14 09:29:00,
2013-03-14 02:40:00,51.1,-99.9,30.24,SSW,202,2.7,4.0,26,0.00,,CLR,0.00,VWS V14.01,2013-03-14 09:40:00,
2013-03-14 02:50:00,50.5,-99.9,30.24,SSW,202,3.1,3.6,28,0.00,,CLR,0.00,VWS V14.01,2013-03-14 09:50:00,
2013-03-14 02:59:00,49.6,-99.9,30.24,SSW,202,2.7,3.4,29,0.00,,CLR,0.00,VWS V14.01,2013-03-14 09:59:00,
2013-03-14 03:09:00,49.1,-99.9,30.24,SSW,202,2.5,2.7,30,0.00,,CLR,0.00,VWS V14.01,2013-03-14 10:09:00,
2013-03-14 03:19:00,49.3,-99.9,30.24,SSW,202,2.5,4.3,30,0.00,,CLR,0.00,VWS V14.01,2013-03-14 10:19:00,
2013-03-14 03:29:00,51.1,-99.9,30.24,SW,225,2.0,3.4,28,0.00,,CLR,0.00,VWS V14.01,2013-03-14 10:29:00,
2013-03-14 03:39:00,49.8,-99.9,30.24,SW,225,2.5,3.1,30,0.00,,CLR,0.00,VWS V14.01,2013-03-14 10:39:00,
2013-03-14 03:49:00,48.9,-99.9,30.24,WSW,248,1.3,3.1,30,0.00,,CLR,0.00,VWS V14.01,2013-03-14 10:49:00,
2013-03-14 03:59:00,48.0,-99.9,30.24,SSW,202,2.2,3.1,32,0.00,,CLR,0.00,VWS V14.01,2013-03-14 10:59:00,
2013-03-14 04:09:00,48.4,-99.9,30.24,SSW,202,2.5,3.4,31,0.00,,CLR,0.00,VWS V14.01,2013-03-14 11:09:00,
2013-03-14 04:19:00,48.2,-99.9,30.24,SSW,202,2.9,3.1,31,0.00,,CLR,0.00,VWS V14.01,2013-03-14 11:19:00,
2013-03-14 04:39:00,48.0,-99.9,30.24,WSW,248,4.0,5.6,33,0.00,,CLR,0.00,VWS V14.01,2013-03-14 11:39:00,
2013-03-14 04:59:00,48.7,-99.9,30.24,SSW,202,2.7,5.6,32,0.00,,CLR,0.00,VWS V14.01,2013-03-14 11:59:00,
2013-03-14 05:09:00,48.4,-99.9,30.27,SSW,202,3.4,3.8,31,0.00,,CLR,0.00,VWS V14.01,2013-03-14 12:09:00,
2013-03-14 05:19:00,48.9,-99.9,30.27,SSW,202,3.1,3.6,30,0.00,,CLR,0.00,VWS V14.01,2013-03-14 12:19:00,
2013-03-14 05:29:00,48.2,-99.9,30.27,SSW,202,3.1,3.1,32,0.00,,CLR,0.00,VWS V14.01,2013-03-14 12:29:00,
2013-03-14 05:39:00,48.2,-99.9,30.27,SSW,202,2.9,3.1,32,0.00,,CLR,0.00,VWS V14.01,2013-03-14 12:39:00,
2013-03-14 05:49:00,47.1,-99.9,30.27,SSW,202,2.7,3.8,35,0.00,,CLR,0.00,VWS V14.01,2013-03-14 12:49:00,
2013-03-14 05:59:00,47.8,-99.9,30.27,SSW,202,2.2,3.8,33,0.00,,CLR,0.00,VWS V14.01,2013-03-14 12:59:00,
2013-03-14 06:09:00,48.7,-99.9,30.27,SSW,202,1.6,3.1,33,0.00,,CLR,0.00,VWS V14.01,2013-03-14 13:09:00,
2013-03-14 06:19:00,46.6,-99.9,30.27,SSW,202,1.6,2.7,35,0.00,,CLR,0.00,VWS V14.01,2013-03-14 13:19:00,
2013-03-14 06:29:00,48.2,-99.9,30.27,SSW,202,2.5,2.9,33,0.00,,CLR,0.00,VWS V14.01,2013-03-14 13:29:00,
2013-03-14 06:39:00,46.9,-99.9,30.24,SSW,202,2.0,2.7,34,0.00,,CLR,0.00,VWS V14.01,2013-03-14 13:39:00,
2013-03-14 06:49:00,45.5,-99.9,30.24,SSW,202,2.0,3.6,38,0.00,,CLR,0.00,VWS V14.01,2013-03-14 13:49:00,
2013-03-14 06:59:00,48.4,-99.9,30.27,SW,225,3.1,3.8,36,0.00,,CLR,0.00,VWS V14.01,2013-03-14 13:59:00,
2013-03-14 07:09:00,51.1,-99.9,30.24,WSW,248,2.5,3.4,33,0.00,,CLR,0.00,VWS V14.01,2013-03-14 14:09:00,
2013-03-14 07:19:00,53.6,-99.9,30.24,WSW,248,0.9,2.7,32,0.00,,CLR,0.00,VWS V14.01,2013-03-14 14:19:00,
2013-03-14 07:29:00,56.1,-99.9,30.27,WSW,248,0.0,0.9,34,0.00,,CLR,0.00,VWS V14.01,2013-03-14 14:29:00,
2013-03-14 07:39:00,58.8,-99.9,30.27,WSW,248,0.0,0.0,34,0.00,,CLR,0.00,VWS V14.01,2013-03-14 14:39:00,
2013-03-14 07:49:00,62.2,-99.9,30.27,WNW,292,0.0,1.3,28,0.00,,CLR,0.00,VWS V14.01,2013-03-14 14:49:00,
2013-03-14 08:00:00,66.4,-99.9,30.27,NNE,22,0.0,0.0,19,0.00,,CLR,0.00,VWS V14.01,2013-03-14 15:00:00,
2013-03-14 08:09:00,68.4,-99.9,30.27,NNE,22,0.0,1.3,6,0.00,,CLR,0.00,VWS V14.01,2013-03-14 15:09:00,
2013-03-14 08:19:00,70.2,-99.9,30.27,NNE,22,0.0,1.3,5,0.00,,CLR,0.00,VWS V14.01,2013-03-14 15:19:00,
2013-03-14 08:29:00,70.5,-99.9,30.27,ENE,68,2.5,2.7,5,0.00,,CLR,0.00,VWS V14.01,2013-03-14 15:29:00,
2013-03-14 08:40:00,70.3,-99.9,30.30,NNE,22,0.0,2.7,5,0.00,,CLR,0.00,VWS V14.01,2013-03-14 15:40:00,
2013-03-14 08:49:00,71.6,-99.9,30.30,ENE,68,1.1,3.1,5,0.00,,CLR,0.00,VWS V14.01,2013-03-14 15:49:00,
2013-03-14 08:59:00,72.1,-99.9,30.30,NNE,22,1.3,3.1,5,0.00,,CLR,0.00,VWS V14.01,2013-03-14 15:59:00,
2013-03-14 09:09:00,73.0,-99.9,30.30,ENE,68,2.7,2.9,5,0.00,,CLR,0.00,VWS V14.01,2013-03-14 16:09:00,
2013-03-14 09:19:00,73.6,-99.9,30.30,SSE,158,0.9,3.1,4,0.00,,CLR,0.00,VWS V14.01,2013-03-14 16:19:00,
2013-03-14 09:29:00,73.9,-99.9,30.30,ENE,68,1.1,4.7,4,0.00,,CLR,0.00,VWS V14.01,2013-03-14 16:29:00,
2013-03-14 09:39:00,74.8,-99.9,30.30,NE,45,2.2,3.8,4,0.00,,CLR,0.00,VWS V14.01,2013-03-14 16:39:00,
2013-03-14 09:49:00,75.4,-99.9,30.30,ENE,68,0.0,4.0,4,0.00,,CLR,0.00,VWS V14.01,2013-03-14 16:49:00,
2013-03-14 09:59:00,76.1,-99.9,30.30,ENE,68,3.1,4.3,4,0.00,,CLR,0.00,VWS V14.01,2013-03-14 16:59:00,
2013-03-14 10:09:00,77.5,-99.9,30.30,NE,45,2.0,3.4,4,0.00,,CLR,0.00,VWS V14.01,2013-03-14 17:09:00,
2013-03-14 10:29:00,79.0,-99.9,30.30,NNE,22,3.6,4.0,4,0.00,,CLR,0.00,VWS V14.01,2013-03-14 17:29:00,
2013-03-14 10:39:00,79.5,-99.9,30.30,ENE,68,2.2,5.8,4,0.00,,CLR,0.00,VWS V14.01,2013-03-14 17:39:00,
2013-03-14 10:49:00,79.0,-99.9,30.30,NNW,338,0.0,4.9,4,0.00,,CLR,0.00,VWS V14.01,2013-03-14 17:49:00,
2013-03-14 10:59:00,79.0,-99.9,30.30,WNW,292,3.1,5.6,4,0.00,,CLR,0.00,VWS V14.01,2013-03-14 17:59:00,
2013-03-14 11:09:00,80.1,-99.9,30.30,NE,45,3.6,4.9,4,0.00,,CLR,0.00,VWS V14.01,2013-03-14 18:09:00,
2013-03-14 11:19:00,80.4,-99.9,30.30,NE,45,1.1,5.6,4,0.00,,CLR,0.00,VWS V14.01,2013-03-14 18:19:00,
2013-03-14 11:29:00,80.1,-99.9,30.30,NNE,22,0.0,8.1,4,0.00,,CLR,0.00,VWS V14.01,2013-03-14 18:29:00,
2013-03-14 11:49:00,81.1,-99.9,30.30,ESE,112,9.8,9.8,4,0.00,,CLR,0.00,VWS V14.01,2013-03-14 18:49:00,
2013-03-14 11:59:00,80.2,-99.9,30.30,SSE,158,5.6,9.8,4,0.00,,CLR,0.00,VWS V14.01,2013-03-14 18:59:00,
2013-03-14 12:09:00,81.9,-99.9,30.27,NE,45,1.3,5.6,4,0.00,,CLR,0.00,VWS V14.01,2013-03-14 19:09:00,
2013-03-14 12:19:00,82.4,-99.9,30.27,NE,45,4.3,5.6,4,0.00,,CLR,0.00,VWS V14.01,2013-03-14 19:19:00,
2013-03-14 12:29:00,82.2,-99.9,30.27,NNE,22,4.0,6.3,4,0.00,,CLR,0.00,VWS V14.01,2013-03-14 19:29:00,
2013-03-14 12:39:00,82.8,-99.9,30.27,SE,135,0.0,5.4,4,0.00,,CLR,0.00,VWS V14.01,2013-03-14 19:39:00,
2013-03-14 12:49:00,82.8,-99.9,30.27,SW,225,2.0,5.4,4,0.00,,CLR,0.00,VWS V14.01,2013-03-14 19:49:00,
2013-03-14 12:59:00,82.0,-99.9,30.27,SE,135,7.8,7.8,4,0.00,,CLR,0.00,VWS V14.01,2013-03-14 19:59:00,
2013-03-14 13:19:00,82.6,-99.9,30.27,ENE,68,1.6,10.1,4,0.00,,CLR,0.00,VWS V14.01,2013-03-14 20:19:00,
2013-03-14 13:29:00,82.8,-99.9,30.24,ENE,68,3.8,8.5,4,0.00,,CLR,0.00,VWS V14.01,2013-03-14 20:29:00,
2013-03-14 13:39:00,83.8,-99.9,30.24,ESE,112,1.3,6.5,4,0.00,,CLR,0.00,VWS V14.01,2013-03-14 20:39:00,
2013-03-14 13:49:00,83.8,-99.9,30.24,NNE,22,1.6,8.5,4,0.00,,CLR,0.00,VWS V14.01,2013-03-14 20:49:00,
2013-03-14 13:59:00,83.3,-99.9,30.24,East,90,6.0,8.5,4,0.00,,CLR,0.00,VWS V14.01,2013-03-14 20:59:00,
2013-03-14 14:19:00,84.7,-99.9,30.24,North,0,5.8,7.8,4,0.00,,CLR,0.00,VWS V14.01,2013-03-14 21:19:00,
2013-03-14 14:30:00,84.7,-99.9,30.21,ENE,68,4.0,7.4,4,0.00,,CLR,0.00,VWS V14.01,2013-03-14 21:30:00,
2013-03-14 14:39:00,84.0,-99.9,30.21,WNW,292,3.8,8.1,4,0.00,,CLR,0.00,VWS V14.01,2013-03-14 21:39:00,
2013-03-14 14:49:00,84.7,-99.9,30.21,SSW,202,2.9,8.5,4,0.00,,CLR,0.00,VWS V14.01,2013-03-14 21:49:00,
2013-03-14 14:59:00,85.3,-99.9,30.21,SSE,158,4.0,6.0,4,0.00,,CLR,0.00,VWS V14.01,2013-03-14 21:59:00,
2013-03-14 15:09:00,85.3,-99.9,30.21,North,0,2.9,7.2,4,0.00,,CLR,0.00,VWS V14.01,2013-03-14 22:09:00,
2013-03-14 15:20:00,85.1,-99.9,30.21,North,0,3.4,6.0,4,0.00,,CLR,0.00,VWS V14.01,2013-03-14 22:20:00,
2013-03-14 15:29:00,85.3,-99.9,30.21,NNE,22,1.6,4.9,4,0.00,,CLR,0.00,VWS V14.01,2013-03-14 22:29:00,
2013-03-14 15:39:00,85.3,-99.9,30.21,ENE,68,6.0,6.0,4,0.00,,CLR,0.00,VWS V14.01,2013-03-14 22:39:00,
2013-03-14 15:49:00,82.8,-99.9,30.21,East,90,5.6,8.7,4,0.00,,CLR,0.00,VWS V14.01,2013-03-14 22:49:00,
2013-03-14 16:00:00,84.9,-99.9,30.24,NE,45,4.0,4.0,4,0.00,,,0.00,VWS V14.01,2013-03-14 23:00:00,
2013-03-14 16:09:00,84.9,-99.9,30.24,South,180,3.1,5.8,4,0.00,,,0.00,VWS V14.01,2013-03-14 23:09:00,
2013-03-14 16:19:00,86.2,-99.9,30.21,East,90,4.0,8.1,4,0.00,,,0.00,VWS V14.01,2013-03-14 23:19:00,
2013-03-14 16:29:00,84.9,-99.9,30.21,East,90,2.5,8.1,4,0.00,,,0.00,VWS V14.01,2013-03-14 23:29:00,
2013-03-14 16:39:00,85.6,-99.9,30.21,SE,135,0.0,4.7,4,0.00,,,0.00,VWS V14.01,2013-03-14 23:39:00,
2013-03-14 16:49:00,84.4,-99.9,30.21,SE,135,4.9,8.1,4,0.00,,,0.00,VWS V14.01,2013-03-14 23:49:00,
2013-03-14 16:59:00,82.9,-99.9,30.21,East,90,4.3,10.5,4,0.00,,,0.00,VWS V14.01,2013-03-14 23:59:00,
2013-03-14 17:09:00,83.3,-99.9,30.21,NE,45,2.2,5.8,4,0.00,,CLR,0.00,VWS V14.01,2013-03-15 00:09:00,
2013-03-14 17:19:00,83.5,-99.9,30.21,SE,135,4.0,5.8,4,0.00,,CLR,0.00,VWS V14.01,2013-03-15 00:19:00,
2013-03-14 17:29:00,83.8,-99.9,30.21,South,180,3.1,4.0,4,0.00,,CLR,0.00,VWS V14.01,2013-03-15 00:29:00,
2013-03-14 17:39:00,83.5,-99.9,30.21,ESE,112,4.0,5.4,4,0.00,,CLR,0.00,VWS V14.01,2013-03-15 00:39:00,
2013-03-14 17:49:00,80.8,-99.9,30.21,SSE,158,5.8,6.5,4,0.00,,CLR,0.00,VWS V14.01,2013-03-15 00:49:00,
2013-03-14 17:59:00,77.5,-99.9,30.24,South,180,4.3,7.2,4,0.00,,CLR,0.00,VWS V14.01,2013-03-15 00:59:00,
2013-03-14 18:09:00,74.1,-99.9,30.21,South,180,3.8,4.3,4,0.00,,CLR,0.00,VWS V14.01,2013-03-15 01:09:00,
2013-03-14 18:19:00,71.6,-99.9,30.21,SSW,202,3.1,4.7,5,0.00,,CLR,0.00,VWS V14.01,2013-03-15 01:19:00,
2013-03-14 18:29:00,69.8,-99.9,30.21,SW,225,3.8,3.8,5,0.00,,CLR,0.00,VWS V14.01,2013-03-15 01:29:00,
2013-03-14 18:49:00,67.5,-99.9,30.21,SSW,202,3.6,3.8,6,0.00,,CLR,0.00,VWS V14.01,2013-03-15 01:49:00,
2013-03-14 19:00:00,66.7,-99.9,30.21,SSW,202,3.4,3.6,6,0.00,,CLR,0.00,VWS V14.01,2013-03-15 02:00:00,
2013-03-14 19:09:00,65.8,-99.9,30.21,SSW,202,2.7,4.0,6,0.00,,CLR,0.00,VWS V14.01,2013-03-15 02:09:00,
2013-03-14 19:19:00,65.7,-99.9,30.21,SSW,202,3.4,4.3,6,0.00,,CLR,0.00,VWS V14.01,2013-03-15 02:19:00,
2013-03-14 19:29:00,65.5,-99.9,30.21,SSW,202,2.7,3.8,6,0.00,,CLR,0.00,VWS V14.01,2013-03-15 02:29:00,
2013-03-14 19:39:00,65.5,-99.9,30.21,SSW,202,3.1,4.0,6,0.00,,CLR,0.00,VWS V14.01,2013-03-15 02:39:00,
2013-03-14 19:49:00,65.1,-99.9,30.21,SSW,202,3.6,4.0,6,0.00,,CLR,0.00,VWS V14.01,2013-03-15 02:49:00,
2013-03-14 20:09:00,64.8,-99.9,30.21,SSW,202,3.1,4.3,6,0.00,,CLR,0.00,VWS V14.01,2013-03-15 03:09:00,
2013-03-14 20:19:00,65.1,-99.9,30.18,SSW,202,4.0,4.0,6,0.00,,CLR,0.00,VWS V14.01,2013-03-15 03:19:00,
2013-03-14 20:29:00,65.1,-99.9,30.21,SSE,158,3.1,4.0,6,0.00,,CLR,0.00,VWS V14.01,2013-03-15 03:29:00,
2013-03-14 20:39:00,65.3,-99.9,30.21,South,180,2.9,4.0,6,0.00,,CLR,0.00,VWS V14.01,2013-03-15 03:39:00,
2013-03-14 20:49:00,65.3,-99.9,30.21,SSW,202,2.7,4.0,6,0.00,,CLR,0.00,VWS V14.01,2013-03-15 03:49:00,
2013-03-14 20:59:00,65.5,-99.9,30.21,South,180,3.8,3.8,6,0.00,,CLR,0.00,VWS V14.01,2013-03-15 03:59:00,
2013-03-14 21:09:00,65.3,-99.9,30.21,SSW,202,3.4,4.0,6,0.00,,CLR,0.00,VWS V14.01,2013-03-15 04:09:00,
2013-03-14 21:19:00,65.5,-99.9,30.21,South,180,2.9,4.7,6,0.00,,CLR,0.00,VWS V14.01,2013-03-15 04:19:00,
2013-03-14 21:29:00,65.5,-99.9,30.21,SSE,158,2.7,4.9,6,0.00,,CLR,0.00,VWS V14.01,2013-03-15 04:29:00,
2013-03-14 21:39:00,62.6,-99.9,30.21,SSE,158,1.3,4.0,7,0.00,,CLR,0.00,VWS V14.01,2013-03-15 04:39:00,
2013-03-14 21:49:00,59.7,-99.9,30.21,WNW,292,2.9,3.4,8,0.00,,CLR,0.00,VWS V14.01,2013-03-15 04:49:00,
2013-03-14 21:59:00,58.8,-99.9,30.21,SW,225,0.9,3.6,8,0.00,,CLR,0.00,VWS V14.01,2013-03-15 04:59:00,
2013-03-14 22:19:00,56.7,-99.9,30.24,SSW,202,2.5,3.1,8,0.00,,CLR,0.00,VWS V14.01,2013-03-15 05:19:00,
2013-03-14 22:29:00,56.8,-99.9,30.24,South,180,2.9,4.3,8,0.00,,CLR,0.00,VWS V14.01,2013-03-15 05:29:00,
2013-03-14 22:39:00,57.0,-99.9,30.24,SSW,202,3.1,4.3,8,0.00,,CLR,0.00,VWS V14.01,2013-03-15 05:39:00,
2013-03-14 22:49:00,55.9,-99.9,30.24,SSW,202,3.1,4.0,8,0.00,,CLR,0.00,VWS V14.01,2013-03-15 05:49:00,
2013-03-14 22:59:00,56.5,-99.9,30.24,WSW,248,2.9,4.9,8,0.00,,CLR,0.00,VWS V14.01,2013-03-15 05:59:00,
2013-03-14 23:09:00,56.5,-99.9,30.21,WSW,248,3.6,3.6,8,0.00,,CLR,0.00,VWS V14.01,2013-03-15 06:09:00,
2013-03-14 23:19:00,55.9,-99.9,30.21,South,180,1.1,4.0,8,0.00,,CLR,0.00,VWS V14.01,2013-03-15 06:19:00,
2013-03-14 23:29:00,57.9,-99.9,30.24,SSW,202,2.0,4.0,8,0.00,,CLR,0.00,VWS V14.01,2013-03-15 06:29:00,
2013-03-14 23:39:00,59.0,-99.9,30.21,SW,225,3.1,4.0,8,0.00,,CLR,0.00,VWS V14.01,2013-03-15 06:39:00,
2013-03-14 23:49:00,59.4,-99.9,30.21,SSW,202,1.6,3.1,8,0.00,,CLR,0.00,VWS V14.01,2013-03-15 06:49:00,